Time;durP1;ratioP1;P1;durP2;ratioP2;P2;SDS_P1;SDS_P2;PMS_P1;PMS_P2;Temp;Humidity;BMP_temperature;BMP_pressure;BME280_temperature;BME280_humidity;BME280_pressure;Samples;Min_cycle;Max_cycle;Signal;HPM_P1;HPM_P2
2020/12/30 00:00:37;;;;;;;6.53;2.22;;;9.60;52.60;;;;;;7561555;23;20018;-81
2020/12/30 00:03:38;;;;;;;4.82;2.30;;;9.50;52.50;;;;;;7587538;23;20072;-82
2020/12/30 00:06:40;;;;;;;10.73;2.47;;;9.60;52.50;;;;;;7588268;23;20115;-82
2020/12/30 00:09:41;;;;;;;5.55;2.00;;;9.60;52.60;;;;;;7611759;23;20094;-80
2020/12/30 00:12:42;;;;;;;4.22;2.13;;;9.50;52.40;;;;;;7612425;23;20014;-79
2020/12/30 00:15:44;;;;;;;5.13;2.20;;;9.60;52.40;;;;;;7585991;23;20080;-82
2020/12/30 00:18:45;;;;;;;8.50;2.15;;;9.60;52.50;;;;;;7559888;23;20022;-79
2020/12/30 00:21:45;;;;;;;5.38;1.50;;;9.60;52.40;;;;;;7585363;23;20029;-79
2020/12/30 00:24:47;;;;;;;5.35;2.55;;;9.60;52.40;;;;;;7583700;23;20307;-80
2020/12/30 00:27:47;;;;;;;4.25;2.03;;;9.60;52.40;;;;;;7584580;23;20058;-80
2020/12/30 00:30:48;;;;;;;3.33;1.60;;;9.50;52.40;;;;;;7585161;23;20085;-80
2020/12/30 00:33:49;;;;;;;5.20;1.80;;;9.50;52.40;;;;;;7547982;23;20026;-80
2020/12/30 00:36:51;;;;;;;4.80;1.90;;;9.50;52.50;;;;;;7610545;23;20021;-80
2020/12/30 00:39:52;;;;;;;4.57;1.95;;;9.50;52.50;;;;;;7583712;23;20018;-79
2020/12/30 00:42:53;;;;;;;4.85;2.20;;;9.40;52.60;;;;;;7610029;23;20020;-80
2020/12/30 00:45:54;;;;;;;5.05;2.30;;;9.40;52.70;;;;;;7584435;23;20507;-80
2020/12/30 00:48:55;;;;;;;9.18;2.50;;;9.40;52.60;;;;;;7609973;23;20018;-81
2020/12/30 00:51:57;;;;;;;4.85;2.03;;;9.40;52.70;;;;;;7608297;23;20311;-80
2020/12/30 00:55:03;;;;;;;4.65;2.15;;;9.30;52.70;;;;;;7586058;23;20006;-80
2020/12/30 00:58:18;;;;;;;2.78;1.75;;;9.40;52.70;;;;;;7584027;23;20037;-81
2020/12/30 01:01:20;;;;;;;6.03;2.15;;;9.40;52.70;;;;;;7583988;23;20033;-79
2020/12/30 01:04:44;;;;;;;3.00;1.73;;;9.40;52.70;;;;;;7582827;23;20287;-80
2020/12/30 01:07:45;;;;;;;8.68;2.25;;;9.40;52.70;;;;;;7583448;23;20025;-81
2020/12/30 01:10:45;;;;;;;6.88;1.98;;;9.40;52.60;;;;;;7607352;23;20018;-80
2020/12/30 01:13:46;;;;;;;5.78;2.10;;;9.40;52.60;;;;;;7610848;23;20020;-81
2020/12/30 01:16:53;;;;;;;3.78;2.05;;;9.40;52.60;;;;;;7589492;23;20065;-78
2020/12/30 01:19:54;;;;;;;7.57;3.47;;;9.30;52.60;;;;;;7611746;23;20029;-80
2020/12/30 01:22:55;;;;;;;9.75;3.78;;;9.40;52.60;;;;;;7585175;23;20014;-80
2020/12/30 01:25:56;;;;;;;11.48;4.80;;;9.40;52.60;;;;;;7570724;23;20017;-80
2020/12/30 01:28:57;;;;;;;17.63;6.97;;;9.30;52.60;;;;;;7558768;23;20017;-80
2020/12/30 01:31:58;;;;;;;18.70;6.53;;;9.30;52.50;;;;;;7581336;23;20068;-79
2020/12/30 01:34:59;;;;;;;19.70;7.43;;;9.30;52.40;;;;;;7583197;23;20434;-79
2020/12/30 01:37:59;;;;;;;9.63;5.00;;;9.30;52.40;;;;;;7583184;23;20081;-80
2020/12/30 01:41:00;;;;;;;16.30;6.22;;;9.30;52.50;;;;;;7607027;23;20099;-79
2020/12/30 01:44:13;;;;;;;10.35;4.20;;;9.30;52.50;;;;;;7583277;23;20017;-81
2020/12/30 01:47:14;;;;;;;7.18;3.38;;;9.30;52.50;;;;;;7608566;23;20026;-80
2020/12/30 01:50:38;;;;;;;9.55;3.10;;;9.20;52.50;;;;;;7578591;23;20014;-80
2020/12/30 01:53:43;;;;;;;7.13;2.63;;;9.20;52.60;;;;;;7519716;23;20036;-81
2020/12/30 01:57:03;;;;;;;9.13;3.80;;;9.20;52.60;;;;;;7576572;23;20029;-81
2020/12/30 02:00:14;;;;;;;9.57;3.30;;;9.20;52.80;;;;;;7608713;23;20042;-82
2020/12/30 02:03:15;;;;;;;9.70;3.17;;;9.20;52.80;;;;;;7581864;23;20013;-81
2020/12/30 02:06:16;;;;;;;16.23;4.10;;;9.20;52.90;;;;;;7607966;23;20361;-80
2020/12/30 02:09:18;;;;;;;7.60;4.22;;;9.30;52.90;;;;;;7583535;23;20025;-79
2020/12/30 02:12:19;;;;;;;5.70;2.78;;;9.30;52.90;;;;;;7558923;23;20033;-79
2020/12/30 02:15:28;;;;;;;8.13;3.03;;;9.30;52.90;;;;;;7582726;23;20018;-81
2020/12/30 02:18:29;;;;;;;6.78;2.70;;;9.30;53.00;;;;;;7609201;23;20026;-79
2020/12/30 02:21:31;;;;;;;9.45;2.67;;;9.30;53.00;;;;;;7559526;23;20032;-79
2020/12/30 02:24:33;;;;;;;7.70;2.13;;;9.30;53.00;;;;;;7582681;23;20021;-79
2020/12/30 02:27:34;;;;;;;10.70;2.60;;;9.40;52.90;;;;;;7609468;23;20022;-79
2020/12/30 02:30:35;;;;;;;6.00;2.58;;;9.40;52.80;;;;;;7583823;23;20029;-81
2020/12/30 02:33:36;;;;;;;8.82;2.60;;;9.40;52.70;;;;;;7584360;23;20010;-80
2020/12/30 02:36:37;;;;;;;4.55;1.73;;;9.40;52.60;;;;;;7584227;23;20303;-79
2020/12/30 02:39:38;;;;;;;4.07;2.03;;;9.40;52.50;;;;;;7607018;23;20016;-80
2020/12/30 02:42:39;;;;;;;3.00;1.58;;;9.40;52.50;;;;;;7560236;23;20457;-79
2020/12/30 02:45:40;;;;;;;4.22;2.10;;;9.40;52.50;;;;;;7585045;23;20017;-80
2020/12/30 02:48:41;;;;;;;3.85;1.88;;;9.40;52.50;;;;;;7603081;23;20023;-80
2020/12/30 02:51:43;;;;;;;4.22;1.98;;;9.40;52.40;;;;;;7573241;23;20010;-80
2020/12/30 02:54:44;;;;;;;4.22;2.05;;;9.40;52.50;;;;;;7581227;23;20018;-80
2020/12/30 02:57:44;;;;;;;3.83;1.95;;;9.40;52.50;;;;;;7578420;23;20070;-80
2020/12/30 03:00:46;;;;;;;9.32;1.70;;;9.40;52.50;;;;;;7578291;23;20022;-81
2020/12/30 03:03:47;;;;;;;5.10;2.33;;;9.40;52.60;;;;;;7575773;23;20010;-80
2020/12/30 03:06:48;;;;;;;5.05;2.10;;;9.40;52.50;;;;;;7571371;23;20030;-80
2020/12/30 03:09:49;;;;;;;3.67;1.70;;;9.40;52.40;;;;;;7570803;23;20018;-81
2020/12/30 03:12:51;;;;;;;2.67;1.58;;;9.30;52.10;;;;;;7595392;23;20025;-80
2020/12/30 03:15:53;;;;;;;6.03;1.70;;;9.30;52.00;;;;;;7572326;23;20014;-80
2020/12/30 03:18:53;;;;;;;4.40;1.85;;;9.20;52.00;;;;;;7570592;23;20029;-80
2020/12/30 03:21:56;;;;;;;4.80;1.80;;;9.20;52.00;;;;;;7570917;23;20014;-80
2020/12/30 03:24:57;;;;;;;5.90;1.63;;;9.10;52.10;;;;;;7571616;23;20026;-78
2020/12/30 03:27:57;;;;;;;5.22;1.88;;;9.20;52.20;;;;;;7570417;23;20378;-79
2020/12/30 03:30:58;;;;;;;6.43;2.13;;;9.10;52.20;;;;;;7570957;23;20034;-80
2020/12/30 03:34:00;;;;;;;8.68;2.95;;;9.10;52.40;;;;;;7592751;23;20113;-79
2020/12/30 03:37:01;;;;;;;7.93;2.80;;;9.10;52.70;;;;;;7570876;23;20007;-79
2020/12/30 03:40:03;;;;;;;8.93;3.28;;;9.10;52.90;;;;;;7572191;23;20354;-79
2020/12/30 03:43:04;;;;;;;4.05;2.22;;;9.10;53.20;;;;;;7569224;23;20069;-79
2020/12/30 03:46:05;;;;;;;10.20;2.92;;;9.10;53.40;;;;;;7571215;23;20018;-79
2020/12/30 03:49:05;;;;;;;5.55;2.92;;;9.00;53.50;;;;;;7573036;23;20022;-79
2020/12/30 03:52:06;;;;;;;7.28;3.08;;;9.00;53.70;;;;;;7571507;23;20018;-80
2020/12/30 03:55:07;;;;;;;7.65;2.85;;;9.00;53.80;;;;;;7562012;23;20035;-79
2020/12/30 03:58:09;;;;;;;7.47;3.00;;;9.00;53.90;;;;;;7560061;23;20023;-78
2020/12/30 04:01:10;;;;;;;7.47;3.17;;;9.00;54.10;;;;;;7539983;23;20094;-78
2020/12/30 04:04:13;;;;;;;8.68;2.72;;;9.00;54.20;;;;;;7538942;23;20106;-80
2020/12/30 04:07:14;;;;;;;6.60;3.10;;;8.90;54.30;;;;;;7540259;23;20094;-81
2020/12/30 04:10:15;;;;;;;9.93;2.67;;;8.90;54.40;;;;;;7512778;23;20022;-79
2020/12/30 04:13:15;;;;;;;9.93;3.20;;;8.90;54.30;;;;;;7513024;23;20093;-80
2020/12/30 04:16:21;;;;;;;8.77;3.35;;;8.90;54.40;;;;;;7537628;23;20026;-79
2020/12/30 04:19:22;;;;;;;6.80;3.60;;;8.90;54.40;;;;;;7534517;23;20029;-79
2020/12/30 04:22:23;;;;;;;9.20;3.42;;;9.00;54.40;;;;;;7537279;23;20019;-79
2020/12/30 04:25:24;;;;;;;7.70;3.50;;;9.00;54.40;;;;;;7536614;23;20022;-79
2020/12/30 04:28:25;;;;;;;8.88;4.30;;;9.00;54.50;;;;;;7537227;23;20013;-78
2020/12/30 04:31:26;;;;;;;7.00;3.45;;;9.10;54.60;;;;;;7537021;23;20010;-80
2020/12/30 04:34:26;;;;;;;8.05;3.65;;;9.00;54.50;;;;;;7517981;23;20042;-79
2020/12/30 04:37:28;;;;;;;11.32;4.50;;;9.00;54.60;;;;;;7519438;23;20441;-80
2020/12/30 04:40:30;;;;;;;10.05;4.30;;;9.10;54.70;;;;;;7545634;23;20022;-80
2020/12/30 04:43:33;;;;;;;15.07;5.70;;;9.10;54.80;;;;;;7538180;23;20292;-80
2020/12/30 04:46:35;;;;;;;13.27;4.85;;;9.10;55.00;;;;;;7536287;23;20362;-80
2020/12/30 04:49:36;;;;;;;13.70;4.63;;;9.00;55.20;;;;;;7536393;23;20061;-79
2020/12/30 04:52:39;;;;;;;13.80;4.97;;;9.00;55.40;;;;;;7513421;23;20023;-80
2020/12/30 04:55:41;;;;;;;12.40;4.75;;;8.90;55.50;;;;;;7542061;23;20026;-80
2020/12/30 04:58:43;;;;;;;11.80;4.60;;;8.90;55.60;;;;;;7609063;23;20033;-79
2020/12/30 05:02:07;;;;;;;12.10;4.30;;;8.90;55.70;;;;;;7583810;23;20014;-79
2020/12/30 05:05:08;;;;;;;10.30;3.83;;;8.80;55.80;;;;;;7565153;23;20022;-78
2020/12/30 05:08:15;;;;;;;11.13;4.10;;;8.80;56.00;;;;;;7581134;23;20014;-80
2020/12/30 05:11:16;;;;;;;11.85;3.47;;;8.70;56.10;;;;;;7602596;23;20018;-79
2020/12/30 05:14:18;;;;;;;8.52;4.30;;;8.70;56.30;;;;;;7578617;23;20036;-80
2020/12/30 05:17:19;;;;;;;13.02;4.45;;;8.60;56.40;;;;;;7555654;23;20017;-80
2020/12/30 05:20:23;;;;;;;10.18;4.47;;;8.60;56.80;;;;;;7556407;23;20421;-80
2020/12/30 05:23:25;;;;;;;14.73;4.80;;;8.50;56.70;;;;;;7580326;23;20089;-81
2020/12/30 05:26:27;;;;;;;12.38;5.13;;;8.50;56.80;;;;;;7580073;23;20284;-80
2020/12/30 05:29:30;;;;;;;11.82;5.40;;;8.40;57.10;;;;;;7567592;23;20022;-81
2020/12/30 05:32:35;;;;;;;11.65;5.15;;;8.40;57.30;;;;;;7565476;23;20366;-80
2020/12/30 05:35:36;;;;;;;10.18;5.25;;;8.40;57.50;;;;;;7559029;23;20010;-80
2020/12/30 05:38:37;;;;;;;12.50;6.03;;;8.30;57.60;;;;;;7608211;23;20082;-80
2020/12/30 05:41:38;;;;;;;14.05;5.72;;;8.30;57.70;;;;;;7579901;23;20026;-80
2020/12/30 05:44:41;;;;;;;11.40;5.85;;;8.30;57.80;;;;;;7580820;23;20014;-79
2020/12/30 05:47:43;;;;;;;10.27;5.50;;;8.30;57.80;;;;;;7563940;23;20070;-79
2020/12/30 05:50:55;;;;;;;11.68;5.22;;;8.20;57.80;;;;;;7632694;23;20461;-79
2020/12/30 05:54:11;;;;;;;10.75;5.43;;;8.20;57.80;;;;;;7601949;23;20051;-80
2020/12/30 05:57:29;;;;;;;13.27;6.18;;;8.20;58.00;;;;;;7560807;23;20070;-80
2020/12/30 06:00:30;;;;;;;14.38;5.95;;;8.10;58.70;;;;;;7540427;23;20093;-79
2020/12/30 06:03:31;;;;;;;13.93;5.45;;;8.00;58.50;;;;;;7577359;23;20367;-79
2020/12/30 06:06:33;;;;;;;12.88;4.95;;;7.90;58.70;;;;;;7585490;23;20022;-80
2020/12/30 06:09:46;;;;;;;11.23;5.13;;;7.90;59.00;;;;;;7539127;23;20014;-79
2020/12/30 06:12:47;;;;;;;16.05;6.32;;;7.80;59.10;;;;;;7560247;23;20033;-80
2020/12/30 06:15:55;;;;;;;11.48;5.47;;;7.80;59.30;;;;;;7579485;23;20018;-79
2020/12/30 06:18:56;;;;;;;15.45;6.03;;;7.80;59.50;;;;;;7574481;23;20016;-80
2020/12/30 06:21:58;;;;;;;12.63;5.57;;;7.80;59.50;;;;;;7571785;23;20029;-78
2020/12/30 06:25:02;;;;;;;12.90;4.90;;;7.70;59.50;;;;;;7592737;23;20303;-79
2020/12/30 06:28:23;;;;;;;14.15;5.57;;;7.70;59.60;;;;;;7567657;23;20424;-80
2020/12/30 06:31:25;;;;;;;16.88;5.22;;;7.80;59.60;;;;;;7543950;23;20015;-79
2020/12/30 06:34:26;;;;;;;13.68;6.13;;;7.80;59.50;;;;;;7568405;23;20026;-80
2020/12/30 06:37:29;;;;;;;12.35;5.45;;;7.90;59.60;;;;;;7568713;23;20011;-80
2020/12/30 06:40:33;;;;;;;12.05;5.65;;;7.70;59.70;;;;;;7545874;23;20025;-80
2020/12/30 06:43:47;;;;;;;14.77;5.18;;;7.70;59.90;;;;;;7544025;23;20010;-80
2020/12/30 06:46:47;;;;;;;13.60;4.80;;;7.70;60.00;;;;;;7542335;23;20422;-79
2020/12/30 06:49:48;;;;;;;15.43;6.53;;;7.70;60.20;;;;;;7565429;23;20092;-80
2020/12/30 06:52:49;;;;;;;11.02;5.20;;;7.70;61.10;;;;;;7556164;23;20034;-79
2020/12/30 06:55:51;;;;;;;13.00;5.90;;;7.60;60.30;;;;;;7576258;23;20024;-80
2020/12/30 06:58:52;;;;;;;14.98;5.18;;;7.60;60.30;;;;;;7605923;23;20474;-80
2020/12/30 07:01:54;;;;;;;10.73;5.03;;;7.60;61.30;;;;;;7582356;23;20081;-78
2020/12/30 07:05:02;;;;;;;12.82;5.22;;;7.60;60.70;;;;;;7607618;23;20018;-79
2020/12/30 07:08:03;;;;;;;14.07;5.35;;;7.60;60.50;;;;;;7580644;23;20080;-79
2020/12/30 07:11:04;;;;;;;10.35;5.53;;;7.60;60.50;;;;;;7580038;23;20016;-79
2020/12/30 07:14:10;;;;;;;8.25;4.22;;;7.70;60.50;;;;;;7579341;23;20294;-79
2020/12/30 07:17:11;;;;;;;9.00;4.55;;;7.70;60.40;;;;;;7580426;23;20018;-80
2020/12/30 07:20:24;;;;;;;17.70;5.57;;;7.70;60.30;;;;;;7606961;23;20021;-79
2020/12/30 07:23:27;;;;;;;13.45;4.95;;;7.70;60.30;;;;;;7605853;23;20021;-80
2020/12/30 07:26:28;;;;;;;14.98;5.63;;;7.70;60.30;;;;;;7542816;23;20306;-79
2020/12/30 07:29:29;;;;;;;14.80;5.63;;;7.80;60.20;;;;;;7582249;23;20029;-80
2020/12/30 07:32:32;;;;;;;13.40;5.80;;;7.80;60.20;;;;;;7607213;23;20026;-81
2020/12/30 07:35:36;;;;;;;14.77;5.20;;;7.80;60.00;;;;;;7542987;23;20089;-79
2020/12/30 07:38:37;;;;;;;13.95;6.53;;;7.80;60.00;;;;;;7557561;23;20014;-79
2020/12/30 07:41:43;;;;;;;18.33;5.80;;;7.80;60.10;;;;;;7584974;23;20029;-81
2020/12/30 07:44:46;;;;;;;11.60;5.60;;;7.70;60.20;;;;;;7560833;23;20018;-79
2020/12/30 07:47:47;;;;;;;19.65;5.70;;;7.70;60.30;;;;;;7609647;23;20056;-80
2020/12/30 07:50:49;;;;;;;17.83;6.20;;;7.70;60.30;;;;;;7609077;23;20025;-81
2020/12/30 07:53:53;;;;;;;13.32;5.45;;;7.80;60.30;;;;;;7582129;23;20034;-79
2020/12/30 07:57:08;;;;;;;22.40;5.93;;;7.80;60.10;;;;;;7572763;23;20022;-81
2020/12/30 08:00:11;;;;;;;12.30;6.05;;;7.90;60.00;;;;;;7571062;23;20438;-81
2020/12/30 08:03:14;;;;;;;16.30;5.68;;;7.90;59.90;;;;;;7561572;23;20078;-79
2020/12/30 08:06:16;;;;;;;15.88;6.20;;;8.00;59.90;;;;;;7597225;23;20473;-79
2020/12/30 08:09:19;;;;;;;20.60;5.93;;;8.00;59.70;;;;;;7572838;23;20434;-81
2020/12/30 08:12:20;;;;;;;11.85;5.75;;;8.10;59.50;;;;;;7595145;23;20021;-80
2020/12/30 08:15:21;;;;;;;14.75;6.18;;;8.20;59.50;;;;;;7572455;23;20466;-81
2020/12/30 08:18:22;;;;;;;8.30;4.20;;;8.30;59.30;;;;;;7571283;23;20019;-80
2020/12/30 08:21:23;;;;;;;12.60;4.30;;;8.30;58.70;;;;;;7601832;23;20086;-80
2020/12/30 08:24:30;;;;;;;8.77;4.07;;;8.30;58.40;;;;;;7577899;23;19999;-80
2020/12/30 08:27:31;;;;;;;9.90;4.53;;;8.30;58.30;;;;;;7589022;23;20268;-79
2020/12/30 08:30:34;;;;;;;17.35;5.13;;;8.30;58.20;;;;;;7581147;23;20087;-81
2020/12/30 08:33:39;;;;;;;10.77;4.95;;;8.30;58.10;;;;;;7557332;23;20402;-79
2020/12/30 08:36:45;;;;;;;8.98;3.92;;;8.30;58.00;;;;;;7576300;23;20036;-80
2020/12/30 08:39:52;;;;;;;10.10;4.47;;;8.30;58.00;;;;;;7577843;23;20295;-81
2020/12/30 08:43:18;;;;;;;9.88;4.55;;;8.30;58.00;;;;;;7601554;23;20030;-79
2020/12/30 08:46:34;;;;;;;7.03;4.88;;;8.40;58.10;;;;;;7479602;23;20482;-80
2020/12/30 08:49:35;;;;;;;9.63;4.43;;;8.50;58.00;;;;;;7415370;23;20408;-79
2020/12/30 08:52:42;;;;;;;8.32;4.30;;;8.60;57.80;;;;;;7448665;23;20030;-80
2020/12/30 08:55:53;;;;;;;14.02;4.97;;;8.80;57.70;;;;;;7496224;23;20027;-79
2020/12/30 08:58:57;;;;;;;8.65;4.53;;;8.90;57.50;;;;;;7476188;23;20023;-81
2020/12/30 09:02:13;;;;;;;6.88;4.00;;;9.10;57.30;;;;;;7472641;23;20117;-81
2020/12/30 09:05:31;;;;;;;10.90;5.07;;;9.20;56.90;;;;;;7474098;23;20019;-81
2020/12/30 09:09:11;;;;;;;12.23;5.25;;;9.20;56.70;;;;;;7463688;23;20025;-80
2020/12/30 09:12:23;;;;;;;;;;;9.30;56.70;;;;;;7445745;23;20506;-79
2020/12/30 09:15:33;;;;;;;6.70;4.13;;;9.30;56.70;;;;;;7376418;23;19986;-80
2020/12/30 09:18:57;;;;;;;9.70;4.90;;;9.20;56.50;;;;;;7387718;24;20009;-80
2020/12/30 09:22:11;;;;;;;13.38;5.00;;;9.20;56.60;;;;;;7388927;23;20010;-79
2020/12/30 09:25:26;;;;;;;16.42;5.82;;;9.40;56.70;;;;;;7529946;23;20414;-79
2020/12/30 09:28:27;;;;;;;12.55;4.53;;;9.40;56.40;;;;;;7504441;23;20021;-82
2020/12/30 09:31:28;;;;;;;13.35;5.07;;;9.50;56.30;;;;;;7521266;23;20001;-81
2020/12/30 09:34:30;;;;;;;11.18;4.28;;;9.60;56.10;;;;;;7569928;23;20015;-81
2020/12/30 09:41:31;;;;;;;12.90;3.85;;;9.80;56.00;;;;;;7535105;23;20022;-80
2020/12/30 09:44:32;;;;;;;6.03;2.58;;;10.00;54.30;;;;;;7537210;23;20085;-79
2020/12/30 09:47:38;;;;;;;9.63;2.90;;;10.10;53.60;;;;;;7574407;23;20395;-80
2020/12/30 09:50:40;;;;;;;5.53;2.60;;;10.20;52.90;;;;;;7574040;23;20461;-80
2020/12/30 09:53:41;;;;;;;13.23;2.13;;;10.20;52.30;;;;;;7577037;23;20086;-81
2020/12/30 09:56:42;;;;;;;4.50;2.55;;;10.30;52.20;;;;;;7574512;23;20449;-80
2020/12/30 09:59:44;;;;;;;6.38;2.50;;;10.30;52.00;;;;;;7525478;23;20018;-80
2020/12/30 10:02:46;;;;;;;9.75;3.15;;;10.30;52.00;;;;;;7574512;23;20018;-80
2020/12/30 10:05:47;;;;;;;4.50;2.47;;;10.30;52.00;;;;;;7572087;23;20363;-80
2020/12/30 10:08:50;;;;;;;6.43;2.97;;;10.20;52.00;;;;;;7553101;23;20486;-81
2020/12/30 10:11:51;;;;;;;11.73;3.03;;;10.20;52.00;;;;;;7551185;23;20011;-81
2020/12/30 10:14:52;;;;;;;7.38;2.70;;;10.20;52.00;;;;;;7573262;23;20042;-82
2020/12/30 10:18:40;;;;;;;6.07;2.70;;;10.20;52.00;;;;;;7575542;23;20041;-81
2020/12/30 10:22:55;;;;;;;13.50;3.42;;;10.20;51.80;;;;;;7539983;23;20014;-81
2020/12/30 10:26:31;;;;;;;10.82;4.68;;;10.20;52.10;;;;;;7521295;23;20033;-81
2020/12/30 10:29:47;;;;;;;10.90;4.78;;;10.20;52.50;;;;;;7489894;23;20009;-79
2020/12/30 10:32:59;;;;;;;9.10;4.22;;;10.20;52.80;;;;;;7388909;23;20047;-80
2020/12/30 10:36:32;;;;;;;9.05;4.38;;;10.20;53.00;;;;;;7467621;23;19999;-81
2020/12/30 10:39:38;;;;;;;8.18;4.05;;;10.20;53.20;;;;;;7559334;23;20230;-80
2020/12/30 10:42:39;;;;;;;13.55;5.00;;;10.20;53.30;;;;;;7656912;23;20087;-79
2020/12/30 10:45:42;;;;;;;7.45;3.90;;;10.20;53.30;;;;;;7657380;23;20021;-80
2020/12/30 10:48:46;;;;;;;7.85;4.90;;;10.10;53.40;;;;;;7604305;23;20012;-80
2020/12/30 10:51:48;;;;;;;12.60;5.63;;;10.00;53.70;;;;;;7652888;23;20017;-80
2020/12/30 10:54:49;;;;;;;12.68;5.10;;;9.90;53.90;;;;;;7657890;23;20017;-80
2020/12/30 10:57:51;;;;;;;16.00;5.05;;;9.90;53.90;;;;;;7659244;23;20017;-80
2020/12/30 11:00:53;;;;;;;18.58;4.70;;;10.00;54.00;;;;;;7633068;23;20028;-80
2020/12/30 11:03:53;;;;;;;11.90;5.38;;;10.00;53.90;;;;;;7636878;23;20017;-81
2020/12/30 11:06:54;;;;;;;14.38;5.95;;;10.10;54.00;;;;;;7664868;23;20070;-81
2020/12/30 11:09:56;;;;;;;9.10;4.68;;;10.10;54.00;;;;;;7662794;23;20124;-80
2020/12/30 11:12:57;;;;;;;17.30;4.78;;;10.20;53.90;;;;;;7659800;23;20016;-81
2020/12/30 11:15:59;;;;;;;16.35;4.72;;;10.30;54.00;;;;;;7684631;23;20016;-81
2020/12/30 11:19:01;;;;;;;6.43;2.65;;;10.40;53.90;;;;;;7621325;23;20023;-80
2020/12/30 11:22:02;;;;;;;2.70;1.27;;;10.40;53.90;;;;;;7660806;23;20021;-82
2020/12/30 11:25:05;;;;;;;2.05;1.02;;;10.40;53.90;;;;;;7637024;23;20031;-81
2020/12/30 11:28:07;;;;;;;2.10;1.10;;;10.40;54.20;;;;;;7637479;23;20027;-80
2020/12/30 11:31:09;;;;;;;1.40;0.95;;;10.20;54.80;;;;;;7662705;23;20024;-80
2020/12/30 11:34:11;;;;;;;2.47;0.70;;;10.10;55.40;;;;;;7686541;23;20089;-79
2020/12/30 11:37:12;;;;;;;1.88;0.70;;;10.00;55.90;;;;;;7662637;23;20029;-81
2020/12/30 11:40:13;;;;;;;0.68;0.50;;;10.00;56.00;;;;;;7661780;23;20048;-80
2020/12/30 11:43:14;;;;;;;2.95;0.55;;;9.90;55.90;;;;;;7663173;23;20080;-80
2020/12/30 11:46:16;;;;;;;0.80;0.60;;;9.90;56.00;;;;;;7685069;23;20024;-81
2020/12/30 11:49:18;;;;;;;0.80;0.40;;;9.90;56.00;;;;;;7685018;23;20307;-83
2020/12/30 11:52:21;;;;;;;1.27;0.60;;;9.90;55.80;;;;;;7660000;23;20416;-81
2020/12/30 11:55:23;;;;;;;1.08;0.70;;;9.90;55.60;;;;;;7660225;23;20017;-80
2020/12/30 11:58:25;;;;;;;0.70;0.30;;;9.90;55.50;;;;;;7637083;23;20013;-79
2020/12/30 12:01:33;;;;;;;4.10;0.50;;;9.90;55.10;;;;;;7687538;23;20367;-79
2020/12/30 12:04:34;;;;;;;1.90;0.40;;;9.90;55.70;;;;;;7686344;23;20057;-80
2020/12/30 12:07:35;;;;;;;1.08;0.25;;;10.00;55.10;;;;;;7684863;23;20044;-80
2020/12/30 12:10:36;;;;;;;1.00;0.45;;;10.00;54.90;;;;;;7661076;23;20040;-80
2020/12/30 12:13:37;;;;;;;0.65;0.43;;;10.00;54.80;;;;;;7659445;23;20017;-80
2020/12/30 12:16:39;;;;;;;0.93;0.80;;;10.00;54.70;;;;;;7660354;23;20045;-80
2020/12/30 12:19:56;;;;;;;0.30;0.28;;;10.10;54.60;;;;;;7642113;23;20297;-81
2020/12/30 12:22:57;;;;;;;3.25;0.75;;;10.20;54.10;;;;;;7663552;23;20017;-80
2020/12/30 12:25:58;;;;;;;0.88;0.60;;;10.30;53.80;;;;;;7653479;23;20039;-80
2020/12/30 12:29:00;;;;;;;0.68;0.50;;;10.20;53.70;;;;;;7632096;23;20104;-80
2020/12/30 12:32:04;;;;;;;1.10;0.43;;;10.30;53.70;;;;;;7656431;23;20068;-80
2020/12/30 12:35:05;;;;;;;0.80;0.60;;;10.30;53.30;;;;;;7669832;23;20016;-80
2020/12/30 12:38:08;;;;;;;2.13;1.00;;;10.30;53.10;;;;;;7701392;23;20039;-81
2020/12/30 12:41:10;;;;;;;0.22;0.22;;;10.20;53.00;;;;;;7646573;23;20040;-80
2020/12/30 12:44:11;;;;;;;1.77;0.95;;;10.20;53.00;;;;;;7642972;23;20025;-80
2020/12/30 12:47:13;;;;;;;0.60;0.60;;;10.20;53.10;;;;;;7626401;23;20352;-78
2020/12/30 12:50:17;;;;;;;1.27;0.70;;;10.20;53.30;;;;;;7656690;23;20024;-82
2020/12/30 12:53:17;;;;;;;0.50;0.50;;;10.10;53.40;;;;;;7616517;23;20009;-80
2020/12/30 12:56:19;;;;;;;1.60;0.98;;;10.00;53.50;;;;;;7658606;23;20173;-80
2020/12/30 12:59:20;;;;;;;1.50;0.73;;;10.00;53.80;;;;;;7655296;23;20099;-81
2020/12/30 13:02:21;;;;;;;1.35;0.45;;;9.90;54.00;;;;;;7682161;23;20420;-80
2020/12/30 13:05:22;;;;;;;0.30;0.30;;;9.80;54.30;;;;;;7630045;23;20020;-81
2020/12/30 13:08:24;;;;;;;1.10;0.60;;;9.80;54.70;;;;;;7654002;23;20368;-80
2020/12/30 13:11:27;;;;;;;0.52;0.47;;;9.70;54.80;;;;;;7655354;23;20013;-80
2020/12/30 13:14:28;;;;;;;1.05;0.55;;;9.60;55.00;;;;;;7630890;23;20005;-81
2020/12/30 13:17:29;;;;;;;1.60;0.60;;;9.60;55.20;;;;;;7681102;23;20009;-81
2020/12/30 13:20:31;;;;;;;0.80;0.60;;;9.60;55.30;;;;;;7655983;23;20091;-81
2020/12/30 13:23:32;;;;;;;2.25;0.60;;;9.50;55.50;;;;;;7656856;23;20013;-80
2020/12/30 13:26:33;;;;;;;0.30;0.30;;;9.50;55.60;;;;;;7657216;23;20381;-82
2020/12/30 13:29:36;;;;;;;0.60;0.50;;;9.40;55.70;;;;;;7657032;23;20428;-81
2020/12/30 13:32:38;;;;;;;0.57;0.40;;;9.40;55.70;;;;;;7683431;23;20017;-80
2020/12/30 13:35:39;;;;;;;0.93;0.50;;;9.30;55.70;;;;;;7632401;23;20020;-81
2020/12/30 13:38:40;;;;;;;0.30;0.30;;;9.30;55.70;;;;;;7684426;23;20024;-80
2020/12/30 13:51:39;;;;;;;;;;;;;;;;;;;;;
2020/12/30 14:24:21;;;;;;;1.23;0.40;;;8.80;57.80;;;;;;6254774;28;20034;-82
2020/12/30 14:27:21;;;;;;;1.35;0.40;;;8.80;57.90;;;;;;6293917;28;20047;-82
2020/12/30 14:30:24;;;;;;;0.63;0.45;;;8.70;58.20;;;;;;6292865;28;20033;-80
2020/12/30 14:33:26;;;;;;;2.67;0.52;;;8.60;58.30;;;;;;6276818;28;20041;-80
2020/12/30 14:36:27;;;;;;;0.60;0.40;;;8.40;58.40;;;;;;6294605;28;20304;-83
2020/12/30 14:39:29;;;;;;;0.25;0.20;;;8.50;58.70;;;;;;6295047;28;20036;-82
2020/12/30 14:42:31;;;;;;;0.40;0.40;;;8.50;58.90;;;;;;6300496;28;20037;-81
2020/12/30 14:45:32;;;;;;;0.93;0.52;;;8.50;59.20;;;;;;6281866;28;20037;-82
2020/12/30 14:48:33;;;;;;;0.55;0.55;;;8.30;59.60;;;;;;6294312;28;20125;-82
2020/12/30 14:51:35;;;;;;;1.05;0.90;;;8.30;60.00;;;;;;6285003;28;20033;-81
2020/12/30 14:54:37;;;;;;;2.40;1.00;;;8.20;60.90;;;;;;6279914;28;20029;-81
2020/12/30 14:57:38;;;;;;;1.08;0.70;;;8.10;61.40;;;;;;6287827;28;20804;-81
2020/12/30 15:00:49;;;;;;;1.15;0.70;;;8.00;62.10;;;;;;6199897;28;20044;-82
2020/12/30 15:03:51;;;;;;;1.05;0.70;;;7.90;62.60;;;;;;6257932;28;20454;-81
2020/12/30 15:06:52;;;;;;;1.48;0.90;;;7.80;62.80;;;;;;6268899;28;20033;-81
2020/12/30 15:09:53;;;;;;;1.60;1.15;;;7.80;62.90;;;;;;6265336;28;20057;-81
2020/12/30 15:12:54;;;;;;;1.88;0.88;;;7.80;63.00;;;;;;6251467;28;20139;-81
2020/12/30 15:15:55;;;;;;;3.10;0.80;;;7.80;62.80;;;;;;6250165;28;20514;-81
2020/12/30 15:18:58;;;;;;;0.73;0.73;;;7.80;62.80;;;;;;6286038;28;20128;-83
2020/12/30 15:21:59;;;;;;;1.17;0.80;;;7.80;63.10;;;;;;6273980;28;20033;-82
2020/12/30 15:25:00;;;;;;;1.90;1.13;;;7.80;63.20;;;;;;6257906;28;20350;-79
2020/12/30 15:28:07;;;;;;;1.65;0.90;;;7.80;63.50;;;;;;6303004;28;20059;-82
2020/12/30 15:31:11;;;;;;;1.90;0.80;;;7.70;64.20;;;;;;6257521;28;20166;-81
2020/12/30 15:34:12;;;;;;;2.65;1.17;;;7.70;64.60;;;;;;6259084;28;20048;-78
2020/12/30 15:37:13;;;;;;;1.95;1.00;;;7.70;64.70;;;;;;6316835;28;20090;-81
2020/12/30 15:40:14;;;;;;;2.85;1.30;;;7.80;65.10;;;;;;6271980;28;20051;-81
2020/12/30 15:43:15;;;;;;;5.07;1.25;;;7.70;65.20;;;;;;6267943;28;20039;-83
2020/12/30 15:46:18;;;;;;;3.03;1.95;;;7.70;65.20;;;;;;6270688;28;20389;-81
2020/12/30 15:49:21;;;;;;;2.95;1.52;;;7.70;65.30;;;;;;6278978;28;20052;-81
2020/12/30 15:52:22;;;;;;;2.65;1.38;;;7.70;65.10;;;;;;6262248;28;20037;-80
2020/12/30 15:55:25;;;;;;;4.03;1.77;;;7.70;64.90;;;;;;6236429;28;20088;-84
2020/12/30 15:58:26;;;;;;;1.75;1.40;;;7.70;64.60;;;;;;6219874;28;20116;-83
2020/12/30 16:01:27;;;;;;;2.25;1.55;;;7.60;64.70;;;;;;6258415;28;20047;-83
2020/12/30 16:04:29;;;;;;;2.38;1.38;;;7.70;64.40;;;;;;6238098;28;20033;-85
2020/12/30 16:07:30;;;;;;;1.75;1.10;;;7.70;64.20;;;;;;6221518;28;20125;-80
2020/12/30 16:10:31;;;;;;;3.00;1.00;;;7.80;64.20;;;;;;6255635;28;20029;-82
2020/12/30 16:13:42;;;;;;;2.22;1.55;;;7.60;63.90;;;;;;6221126;28;20116;-83
2020/12/30 16:16:46;;;;;;;0.88;0.77;;;7.60;63.80;;;;;;6234688;28;20029;-82
2020/12/30 16:23:27;;;;;;;;;;;7.70;62.80;;;;;;6136270;28;20057;-81
2020/12/30 16:26:28;;;;;;;4.07;1.20;;;7.80;62.00;;;;;;6176597;28;19941;-81
2020/12/30 16:29:29;;;;;;;1.85;1.08;;;7.90;61.20;;;;;;6169521;28;20031;-80
2020/12/30 16:32:30;;;;;;;2.35;1.42;;;8.00;61.00;;;;;;6185423;28;20041;-81
2020/12/30 16:35:31;;;;;;;2.03;1.23;;;8.10;60.80;;;;;;6181973;28;20461;-81
2020/12/30 16:38:58;;;;;;;2.67;1.77;;;8.10;60.20;;;;;;6152087;28;20457;-82
2020/12/30 16:41:59;;;;;;;1.77;1.13;;;8.20;59.90;;;;;;6127787;28;20027;-80
2020/12/30 16:45:00;;;;;;;2.17;1.10;;;8.10;59.40;;;;;;6138769;28;20047;-82
2020/12/30 16:48:01;;;;;;;2.22;1.50;;;8.30;59.10;;;;;;6141644;28;20047;-81
2020/12/30 16:51:03;;;;;;;4.05;1.48;;;8.40;58.90;;;;;;6149293;28;20051;-81